createdAt,value
2018-06-02T00:00:24.256Z,85.31
2018-06-02T00:01:24.247Z,85.31
2018-06-02T00:02:24.239Z,84.92
2018-06-02T00:03:24.232Z,85.31
2018-06-02T00:04:24.222Z,85.21
2018-06-02T00:05:24.209Z,85.31
2018-06-02T00:06:24.201Z,85.60
2018-06-02T00:07:24.194Z,85.69
2018-06-02T00:08:24.181Z,85.69
2018-06-02T00:09:24.173Z,85.50
2018-06-02T00:10:24.162Z,85.50
2018-06-02T00:11:24.224Z,85.79
2018-06-02T00:12:24.148Z,85.88
2018-06-02T00:13:24.138Z,85.69
2018-06-02T00:14:24.130Z,85.41
2018-06-02T00:15:24.120Z,86.08
2018-06-02T00:16:24.109Z,85.69
2018-06-02T00:17:24.100Z,85.79
2018-06-02T00:18:24.091Z,86.02
2018-06-02T00:19:24.089Z,85.60
2018-06-02T00:20:24.072Z,85.69
2018-06-02T00:21:24.063Z,85.79
2018-06-02T00:22:24.058Z,85.50
2018-06-02T00:23:24.048Z,85.12
2018-06-02T00:24:24.035Z,85.60
2018-06-02T00:25:24.030Z,85.88
2018-06-02T00:26:24.019Z,85.21
2018-06-02T00:27:24.007Z,85.31
2018-06-02T00:28:23.999Z,84.92
2018-06-02T00:29:23.989Z,85.60
2018-06-02T00:30:23.979Z,85.88
2018-06-02T00:31:23.981Z,86.04
2018-06-02T00:32:23.965Z,85.65
2018-06-02T00:33:23.956Z,86.22
2018-06-02T00:34:23.945Z,86.22
2018-06-02T00:35:23.935Z,86.90
2018-06-02T00:36:23.925Z,87.27
2018-06-02T00:37:23.920Z,87.47
2018-06-02T00:38:23.907Z,87.18
2018-06-02T00:39:23.899Z,86.90
2018-06-02T00:40:23.899Z,87.08
2018-06-02T00:41:23.893Z,86.70
2018-06-02T00:42:23.867Z,87.18
2018-06-02T00:43:23.868Z,86.99
2018-06-02T00:44:23.852Z,86.90
2018-06-02T00:45:23.846Z,87.08
2018-06-02T00:46:23.844Z,86.80
2018-06-02T00:47:23.827Z,86.51
2018-06-02T00:48:23.812Z,86.13
2018-06-02T00:49:23.804Z,85.75
2018-06-02T00:50:23.796Z,85.65
2018-06-02T00:51:23.789Z,86.08
2018-06-02T00:52:23.777Z,85.36
2018-06-02T00:53:23.773Z,85.55
2018-06-02T00:54:23.765Z,85.75
2018-06-02T00:55:23.756Z,85.84
2018-06-02T00:56:23.740Z,85.84
2018-06-02T00:57:23.730Z,86.61
2018-06-02T00:58:23.720Z,86.32
2018-06-02T00:59:23.714Z,86.32
2018-06-02T01:00:23.703Z,86.13
2018-06-02T01:01:23.693Z,86.27
2018-06-02T01:02:23.687Z,85.79
2018-06-02T01:03:23.674Z,86.51
2018-06-02T01:04:23.670Z,85.98
2018-06-02T01:05:23.656Z,86.22
2018-06-02T01:06:23.649Z,86.22
2018-06-02T01:07:23.638Z,86.61
2018-06-02T01:08:23.631Z,86.13
2018-06-02T01:09:23.626Z,86.22
2018-06-02T01:10:23.612Z,85.84
2018-06-02T01:11:23.601Z,85.79
2018-06-02T01:12:23.588Z,85.65
2018-06-02T01:13:23.584Z,86.04
2018-06-02T01:14:23.575Z,85.65
2018-06-02T01:15:23.566Z,85.55
2018-06-02T01:16:23.552Z,85.55
2018-06-02T01:17:23.538Z,85.65
2018-06-02T01:18:23.535Z,85.84
2018-06-02T01:19:23.529Z,85.75
2018-06-02T01:20:23.519Z,85.84
2018-06-02T01:21:23.513Z,86.13
2018-06-02T01:22:23.499Z,86.41
2018-06-02T01:23:23.495Z,85.55
2018-06-02T01:24:23.482Z,86.32
2018-06-02T01:25:23.465Z,85.65
2018-06-02T01:26:23.459Z,85.65
2018-06-02T01:27:23.452Z,86.32
2018-06-02T01:28:23.443Z,85.84
2018-06-02T01:29:23.439Z,85.55
2018-06-02T01:30:23.423Z,85.55
2018-06-02T01:31:23.418Z,85.55
2018-06-02T01:32:23.405Z,85.65
2018-06-02T01:33:23.398Z,86.51
2018-06-02T01:34:23.390Z,86.13
2018-06-02T01:35:23.381Z,86.13
2018-06-02T01:36:23.369Z,86.13
2018-06-02T01:37:23.359Z,86.32
2018-06-02T01:38:23.349Z,86.13
2018-06-02T01:39:23.340Z,85.94
2018-06-02T01:40:23.329Z,86.04
2018-06-02T01:41:23.321Z,86.04
2018-06-02T01:42:23.317Z,86.22
2018-06-02T01:43:23.307Z,86.32
2018-06-02T01:44:23.293Z,86.13
2018-06-02T01:45:23.282Z,86.32
2018-06-02T01:46:23.273Z,86.51
2018-06-02T01:47:23.263Z,86.51
2018-06-02T01:48:23.255Z,85.65
2018-06-02T01:49:23.246Z,85.46
2018-06-02T01:50:23.237Z,85.65
2018-06-02T01:51:23.227Z,85.65
2018-06-02T01:52:23.212Z,85.55
2018-06-02T01:53:23.212Z,85.71
2018-06-02T01:54:23.198Z,86.47
2018-06-02T01:55:23.189Z,86.66
2018-06-02T01:56:23.181Z,86.76
2018-06-02T01:57:23.171Z,86.37
2018-06-02T01:58:23.167Z,86.18
2018-06-02T01:59:23.154Z,86.76
2018-06-02T02:00:23.139Z,86.47
2018-06-02T02:01:23.131Z,86.57
2018-06-02T02:02:23.121Z,86.47
2018-06-02T02:03:23.119Z,86.76
2018-06-02T02:04:23.101Z,87.14
2018-06-02T02:05:23.095Z,86.94
2018-06-02T02:06:23.113Z,87.71
2018-06-02T02:07:23.075Z,87.04
2018-06-02T02:08:23.063Z,87.14
2018-06-02T02:09:23.059Z,86.94
2018-06-02T02:10:23.050Z,86.76
2018-06-02T02:11:23.039Z,86.94
2018-06-02T02:12:23.025Z,86.57
2018-06-02T02:13:23.025Z,86.37
2018-06-02T02:14:23.010Z,86.85
2018-06-02T02:15:23.003Z,86.66
2018-06-02T02:16:22.986Z,86.28
2018-06-02T02:17:22.976Z,86.18
2018-06-02T02:18:22.968Z,86.18
2018-06-02T02:19:22.956Z,85.71
2018-06-02T02:20:22.948Z,85.22
2018-06-02T02:21:22.940Z,85.41
2018-06-02T02:22:22.930Z,85.51
2018-06-02T02:23:22.924Z,85.22
2018-06-02T02:24:22.911Z,85.22
2018-06-02T02:25:22.901Z,85.41
2018-06-02T02:26:22.895Z,85.41
2018-06-02T02:27:22.893Z,85.51
2018-06-02T02:28:22.873Z,85.41
2018-06-02T02:29:22.862Z,85.89
2018-06-02T02:30:22.855Z,85.80
2018-06-02T02:31:22.848Z,85.80
2018-06-02T02:32:22.830Z,85.41
2018-06-02T02:33:22.829Z,86.47
2018-06-02T02:34:22.815Z,86.18
2018-06-02T02:35:22.807Z,86.57
2018-06-02T02:36:22.801Z,86.37
2018-06-02T02:37:22.781Z,86.28
2018-06-02T02:38:22.778Z,86.28
2018-06-02T02:39:22.774Z,86.28
2018-06-02T02:40:22.750Z,86.08
2018-06-02T02:41:22.747Z,86.47
2018-06-02T02:42:22.741Z,86.28
2018-06-02T02:43:22.726Z,85.89
2018-06-02T02:44:22.718Z,85.61
2018-06-02T02:45:22.711Z,85.80
2018-06-02T02:46:22.701Z,85.80
2018-06-02T02:47:22.687Z,85.71
2018-06-02T02:48:22.677Z,86.28
2018-06-02T02:49:22.667Z,86.66
2018-06-02T02:50:22.659Z,86.76
2018-06-02T02:51:22.652Z,86.37
2018-06-02T02:52:22.648Z,86.85
2018-06-02T02:53:22.635Z,86.85
2018-06-02T02:54:22.623Z,87.04
2018-06-02T02:55:22.611Z,86.37
2018-06-02T02:56:22.597Z,86.76
2018-06-02T02:57:22.598Z,86.76
2018-06-02T02:58:22.582Z,86.47
2018-06-02T02:59:22.574Z,86.28
2018-06-02T03:00:22.572Z,86.76
2018-06-02T03:01:22.575Z,86.57
2018-06-02T03:02:22.544Z,86.28
2018-06-02T03:03:22.541Z,86.28
2018-06-02T03:04:22.522Z,85.71
2018-06-02T03:05:22.520Z,85.41
2018-06-02T03:06:22.506Z,85.80
2018-06-02T03:07:22.492Z,85.51
2018-06-02T03:08:22.487Z,84.55
2018-06-02T03:09:22.473Z,84.84
2018-06-02T03:10:22.470Z,84.75
2018-06-02T03:11:22.450Z,84.36
2018-06-02T03:12:22.456Z,84.46
2018-06-02T03:13:22.439Z,84.75
2018-06-02T03:14:22.438Z,84.36
2018-06-02T03:15:22.417Z,85.13
2018-06-02T03:16:22.403Z,85.41
2018-06-02T03:17:22.401Z,85.51
2018-06-02T03:18:22.391Z,85.61
2018-06-02T03:19:22.379Z,85.89
2018-06-02T03:20:22.370Z,85.61
2018-06-02T03:21:22.356Z,86.28
2018-06-02T03:22:22.355Z,85.41
2018-06-02T03:23:22.338Z,85.41
2018-06-02T03:24:22.330Z,85.80
2018-06-02T03:25:22.318Z,85.41
2018-06-02T03:26:22.313Z,85.32
2018-06-02T03:27:22.308Z,85.41
2018-06-02T03:28:22.293Z,85.51
2018-06-02T03:29:22.285Z,85.99
2018-06-02T03:30:22.270Z,85.41
2018-06-02T03:31:22.264Z,85.89
2018-06-02T03:32:22.250Z,85.71
2018-06-02T03:33:22.240Z,85.61
2018-06-02T03:34:22.234Z,85.51
2018-06-02T03:35:22.224Z,85.89
2018-06-02T03:36:22.215Z,85.41
2018-06-02T03:37:22.207Z,85.80
2018-06-02T03:38:22.192Z,85.71
2018-06-02T03:39:22.181Z,85.89
2018-06-02T03:40:22.177Z,85.89
2018-06-02T03:41:22.167Z,85.71
2018-06-02T03:42:22.157Z,85.32
2018-06-02T03:43:22.142Z,85.03
2018-06-02T03:44:22.135Z,85.03
2018-06-02T03:45:22.126Z,84.46
2018-06-02T03:46:22.120Z,84.17
2018-06-02T03:47:22.109Z,84.55
2018-06-02T03:48:22.096Z,83.69
2018-06-02T03:49:22.088Z,83.22
2018-06-02T03:50:22.078Z,83.79
2018-06-02T03:51:22.065Z,84.55
2018-06-02T03:52:22.055Z,84.55
2018-06-02T03:53:22.047Z,85.22
2018-06-02T03:54:22.043Z,85.71
2018-06-02T03:55:22.035Z,85.51
2018-06-02T03:56:22.024Z,85.41
2018-06-02T03:57:22.007Z,85.51
2018-06-02T03:58:22.001Z,85.61
2018-06-02T03:59:21.989Z,86.47
2018-06-02T04:00:21.980Z,85.89
2018-06-02T04:01:21.968Z,85.41
2018-06-02T04:02:21.964Z,85.22
2018-06-02T04:03:21.950Z,85.22
2018-06-02T04:04:21.951Z,85.22
2018-06-02T04:05:21.935Z,85.22
2018-06-02T04:06:21.921Z,85.41
2018-06-02T04:07:21.986Z,85.89
2018-06-02T04:08:21.906Z,85.61
2018-06-02T04:09:21.909Z,85.99
2018-06-02T04:10:21.885Z,85.71
2018-06-02T04:11:21.876Z,85.71
2018-06-02T04:12:21.862Z,85.41
2018-06-02T04:13:21.848Z,85.89
2018-06-02T04:14:21.850Z,85.89
2018-06-02T04:15:21.835Z,85.61
2018-06-02T04:16:21.835Z,85.51
2018-06-02T04:17:21.820Z,85.99
2018-06-02T04:18:21.807Z,85.71
2018-06-02T04:19:21.797Z,85.71
2018-06-02T04:20:21.792Z,86.28
2018-06-02T04:21:21.775Z,86.28
2018-06-02T04:22:21.767Z,85.89
2018-06-02T04:23:21.759Z,85.61
2018-06-02T04:24:21.746Z,85.61
2018-06-02T04:25:21.736Z,86.28
2018-06-02T04:26:21.728Z,85.71
2018-06-02T04:27:21.721Z,85.80
2018-06-02T04:28:21.710Z,85.61
2018-06-02T04:29:21.697Z,86.28
2018-06-02T04:30:21.688Z,86.28
2018-06-02T04:31:21.680Z,86.28
2018-06-02T04:32:21.671Z,86.28
2018-06-02T04:33:21.661Z,86.28
2018-06-02T04:34:21.657Z,85.89
2018-06-02T04:35:21.647Z,85.71
2018-06-02T04:36:21.637Z,85.80
2018-06-02T04:37:21.620Z,85.61
2018-06-02T04:38:21.607Z,85.51
2018-06-02T04:39:21.599Z,85.71
2018-06-02T04:40:21.591Z,85.99
2018-06-02T04:41:21.584Z,85.71
2018-06-02T04:42:21.575Z,85.99
2018-06-02T04:43:21.559Z,85.41
2018-06-02T04:44:21.556Z,85.71
2018-06-02T04:45:21.543Z,85.80
2018-06-02T04:46:21.534Z,85.80
2018-06-02T04:47:21.525Z,85.51
2018-06-02T04:48:21.516Z,85.61
2018-06-02T04:49:21.505Z,85.61
2018-06-02T04:50:21.495Z,85.51
2018-06-02T04:51:21.480Z,85.41
2018-06-02T04:52:21.474Z,84.46
2018-06-02T04:53:21.463Z,84.46
2018-06-02T04:54:21.452Z,84.46
2018-06-02T04:55:21.446Z,85.22
2018-06-02T04:56:21.440Z,85.32
2018-06-02T04:57:21.425Z,85.03
2018-06-02T04:58:21.418Z,85.41
2018-06-02T04:59:21.405Z,85.51
2018-06-02T05:00:21.393Z,85.99
2018-06-02T05:01:21.383Z,85.80
2018-06-02T05:02:21.377Z,85.71
2018-06-02T05:03:21.364Z,85.61
2018-06-02T05:04:21.374Z,86.18
2018-06-02T05:05:21.350Z,86.18
2018-06-02T05:06:21.340Z,85.61
2018-06-02T05:07:21.327Z,85.71
2018-06-02T05:08:21.319Z,85.61
2018-06-02T05:09:21.308Z,85.41
2018-06-02T05:10:21.297Z,85.61
2018-06-02T05:11:21.291Z,85.71
2018-06-02T05:12:21.280Z,85.80
2018-06-02T05:13:21.272Z,84.36
2018-06-02T05:14:21.261Z,84.69
2018-06-02T05:15:21.254Z,85.22
2018-06-02T05:16:21.242Z,85.08
2018-06-02T05:17:21.236Z,85.22
2018-06-02T05:18:21.226Z,85.61
2018-06-02T05:19:21.214Z,85.46
2018-06-02T05:20:21.205Z,85.03
2018-06-02T05:21:21.189Z,85.17
2018-06-02T05:22:21.180Z,84.50
2018-06-02T05:23:21.189Z,84.79
2018-06-02T05:24:21.169Z,85.75
2018-06-02T05:25:21.157Z,85.27
2018-06-02T05:26:21.149Z,85.27
2018-06-02T05:27:21.132Z,85.55
2018-06-02T05:28:21.127Z,85.27
2018-06-02T05:29:21.116Z,85.75
2018-06-02T05:30:21.102Z,85.84
2018-06-02T05:31:21.100Z,85.84
2018-06-02T05:32:21.088Z,86.04
2018-06-02T05:33:21.078Z,86.04
2018-06-02T05:34:21.065Z,85.75
2018-06-02T05:35:21.102Z,85.55
2018-06-02T05:36:21.050Z,85.46
2018-06-02T05:37:21.035Z,85.55
2018-06-02T05:38:21.025Z,85.84
2018-06-02T05:39:21.019Z,85.46
2018-06-02T05:40:21.011Z,85.27
2018-06-02T05:41:21.000Z,85.65
2018-06-02T05:42:20.988Z,85.65
2018-06-02T05:43:20.981Z,85.27
2018-06-02T05:44:20.968Z,85.55
2018-06-02T05:45:20.965Z,85.65
2018-06-02T05:46:20.956Z,85.46
2018-06-02T05:47:20.942Z,85.46
2018-06-02T05:48:20.970Z,85.50
2018-06-02T05:49:20.925Z,85.46
2018-06-02T05:50:20.919Z,85.65
2018-06-02T05:51:20.907Z,85.46
2018-06-02T05:52:20.893Z,85.46
2018-06-02T05:53:20.888Z,85.84
2018-06-02T05:54:20.881Z,85.55
2018-06-02T05:55:20.866Z,85.55
2018-06-02T05:56:20.852Z,85.65
2018-06-02T05:57:20.850Z,85.46
2018-06-02T05:58:20.841Z,84.98
2018-06-02T05:59:20.829Z,84.59
2018-06-02T06:00:20.826Z,84.31
2018-06-02T06:01:20.813Z,85.08
2018-06-02T06:02:20.802Z,85.31
2018-06-02T06:03:20.791Z,84.45
2018-06-02T06:04:20.787Z,85.02
2018-06-02T06:05:20.771Z,84.74
2018-06-02T06:06:20.760Z,84.45
2018-06-02T06:07:20.749Z,84.45
2018-06-02T06:08:20.743Z,84.45
2018-06-02T06:09:20.739Z,84.35
2018-06-02T06:10:20.725Z,83.78
2018-06-02T06:11:20.717Z,83.68
2018-06-02T06:12:20.703Z,83.34
2018-06-02T06:13:20.699Z,83.34
2018-06-02T06:14:20.687Z,83.44
2018-06-02T06:15:20.677Z,82.86
2018-06-02T06:16:20.668Z,82.86
2018-06-02T06:17:20.658Z,82.57
2018-06-02T06:18:20.658Z,82.76
2018-06-02T06:19:20.638Z,82.38
2018-06-02T06:20:20.628Z,82.86
2018-06-02T06:21:20.621Z,82.48
2018-06-02T06:22:20.625Z,82.48
2018-06-02T06:23:20.603Z,82.57
2018-06-02T06:24:20.595Z,82.32
2018-06-02T06:25:20.584Z,81.75
2018-06-02T06:26:20.572Z,81.95
2018-06-02T06:27:20.567Z,81.95
2018-06-02T06:28:20.563Z,81.46
2018-06-02T06:29:20.551Z,81.41
2018-06-02T06:30:20.537Z,81.22
2018-06-02T06:31:20.532Z,81.79
2018-06-02T06:32:20.531Z,81.02
2018-06-02T06:33:20.513Z,80.35
2018-06-02T06:34:20.503Z,80.35
2018-06-02T06:35:20.500Z,80.11
2018-06-02T06:36:20.486Z,79.44
2018-06-02T06:37:20.475Z,80.20
2018-06-02T06:38:20.465Z,79.82
2018-06-02T06:39:20.462Z,79.34
2018-06-02T06:40:20.446Z,79.53
2018-06-02T06:41:20.437Z,79.19
2018-06-02T06:42:20.435Z,78.61
2018-06-02T06:43:20.420Z,77.08
2018-06-02T06:44:20.419Z,77.36
2018-06-02T06:45:20.405Z,77.75
2018-06-02T06:46:20.399Z,77.17
2018-06-02T06:47:20.389Z,76.88
2018-06-02T06:48:20.382Z,76.69
2018-06-02T06:49:20.371Z,75.82
2018-06-02T06:50:20.368Z,76.12
2018-06-02T06:51:20.358Z,75.38
2018-06-02T06:52:20.344Z,75.29
2018-06-02T06:53:20.347Z,75.10
2018-06-02T06:54:20.336Z,74.04
2018-06-02T06:55:20.322Z,73.37
2018-06-02T06:56:20.311Z,73.46
2018-06-02T06:57:20.317Z,72.99
2018-06-02T06:58:20.299Z,72.60
2018-06-02T06:59:20.289Z,72.79
2018-06-02T07:00:20.287Z,74.43
2018-06-02T07:01:20.269Z,73.18
2018-06-02T07:02:20.262Z,71.83
2018-06-02T07:03:20.257Z,71.48
2018-06-02T07:04:20.250Z,72.54
2018-06-02T07:05:20.244Z,74.75
2018-06-02T07:06:20.230Z,75.04
2018-06-02T07:07:20.224Z,74.55
2018-06-02T07:08:20.217Z,73.98
2018-06-02T07:09:20.210Z,72.92
2018-06-02T07:10:20.202Z,73.21
2018-06-02T07:11:20.190Z,70.43
2018-06-02T07:12:20.183Z,69.95
2018-06-02T07:13:20.179Z,70.62
2018-06-02T07:14:20.167Z,72.34
2018-06-02T07:15:20.161Z,73.60
2018-06-02T07:16:20.151Z,75.32
2018-06-02T07:17:20.141Z,74.94
2018-06-02T07:18:20.137Z,73.41
2018-06-02T07:19:20.135Z,72.64
2018-06-02T07:20:20.118Z,73.02
2018-06-02T07:21:20.115Z,74.08
2018-06-02T07:22:20.106Z,73.54
2018-06-02T07:23:20.100Z,72.19
2018-06-02T07:24:20.089Z,72.19
2018-06-02T07:25:20.080Z,71.91
2018-06-02T07:26:20.076Z,72.19
2018-06-02T07:27:20.075Z,72.00
2018-06-02T07:28:20.055Z,72.19
2018-06-02T07:29:20.052Z,72.67
2018-06-02T07:30:20.041Z,73.44
2018-06-02T07:31:20.037Z,73.28
2018-06-02T07:32:20.023Z,72.61
2018-06-02T07:33:20.015Z,71.75
2018-06-02T07:34:20.007Z,71.94
2018-06-02T07:35:20.001Z,71.08
2018-06-02T07:36:19.998Z,71.36
2018-06-02T07:37:19.988Z,70.40
2018-06-02T07:38:19.979Z,70.88
2018-06-02T07:39:19.973Z,70.88
2018-06-02T07:40:19.966Z,71.08
2018-06-02T07:41:19.958Z,70.59
2018-06-02T07:42:19.952Z,70.50
2018-06-02T07:43:19.942Z,70.68
2018-06-02T07:44:19.959Z,71.55
2018-06-02T07:45:19.929Z,69.15
2018-06-02T07:46:19.924Z,68.96
2018-06-02T07:47:19.913Z,69.15
2018-06-02T07:48:19.905Z,69.38
2018-06-02T07:49:19.899Z,70.53
2018-06-02T07:50:19.896Z,69.47
2018-06-02T07:51:19.884Z,68.60
2018-06-02T07:52:19.869Z,68.41
2018-06-02T07:53:19.869Z,66.81
2018-06-02T07:54:19.861Z,66.04
2018-06-02T07:55:19.853Z,66.81
2018-06-02T07:56:19.841Z,67.97
2018-06-02T07:57:19.839Z,64.31
2018-06-02T07:58:19.835Z,62.87
2018-06-02T07:59:19.827Z,63.15
2018-06-02T08:00:19.823Z,62.77
2018-06-02T08:01:19.817Z,62.57
2018-06-02T08:02:19.815Z,63.92
2018-06-02T08:03:19.802Z,62.96
2018-06-02T08:04:19.794Z,65.46
2018-06-02T08:05:19.788Z,62.38
2018-06-02T08:06:19.782Z,62.48
2018-06-02T08:07:19.776Z,62.09
2018-06-02T08:08:19.785Z,63.54
2018-06-02T08:09:19.759Z,63.34
2018-06-02T08:10:19.754Z,63.25
2018-06-02T08:11:19.741Z,64.18
2018-06-02T08:12:19.738Z,64.18
2018-06-02T08:13:19.727Z,64.28
2018-06-02T08:14:19.719Z,64.08
2018-06-02T08:15:19.715Z,64.66
2018-06-02T08:16:19.710Z,63.89
2018-06-02T08:17:19.703Z,62.06
2018-06-02T08:18:19.692Z,62.93
2018-06-02T08:19:19.687Z,64.86
2018-06-02T08:20:19.681Z,62.16
2018-06-02T08:21:19.674Z,61.87
2018-06-02T08:22:19.663Z,62.57
2018-06-02T08:23:19.669Z,62.06
2018-06-02T08:24:19.647Z,62.26
2018-06-02T08:25:19.644Z,62.45
2018-06-02T08:26:19.636Z,62.32
2018-06-02T08:27:19.634Z,62.23
2018-06-02T08:28:19.626Z,62.29
2018-06-02T08:29:19.616Z,62.03
2018-06-02T08:30:19.609Z,62.48
2018-06-02T08:31:19.610Z,63.73
2018-06-02T08:32:19.599Z,63.83
2018-06-02T08:33:19.618Z,64.31
2018-06-02T08:34:19.583Z,63.83
2018-06-02T08:35:19.576Z,62.61
2018-06-02T08:36:19.566Z,62.32
2018-06-02T08:37:19.557Z,62.51
2018-06-02T08:38:19.555Z,62.54
2018-06-02T08:39:19.547Z,62.83
2018-06-02T08:40:19.542Z,64.28
2018-06-02T08:41:19.534Z,62.74
2018-06-02T08:42:19.525Z,63.31
2018-06-02T08:43:19.514Z,61.68
2018-06-02T08:44:19.512Z,61.58
2018-06-02T08:45:19.502Z,60.14
2018-06-02T08:46:19.538Z,60.72
2018-06-02T08:47:19.484Z,61.87
2018-06-02T08:48:19.477Z,62.09
2018-06-02T08:49:19.473Z,62.00
2018-06-02T08:50:19.469Z,62.12
2018-06-02T08:51:19.459Z,61.61
2018-06-02T08:52:19.454Z,60.97
2018-06-02T08:53:19.446Z,61.83
2018-06-02T08:54:19.461Z,61.45
2018-06-02T08:55:19.440Z,60.77
2018-06-02T08:56:19.431Z,60.77
2018-06-02T08:57:19.413Z,59.81
2018-06-02T08:58:19.411Z,62.45
2018-06-02T08:59:19.399Z,61.58
2018-06-02T09:00:19.397Z,61.77
2018-06-02T09:01:19.394Z,61.68
2018-06-02T09:02:19.381Z,65.24
2018-06-02T09:03:19.375Z,63.31
2018-06-02T09:04:19.373Z,61.51
2018-06-02T09:05:19.417Z,60.23
2018-06-02T09:06:19.356Z,58.20
2018-06-02T09:07:19.350Z,59.17
2018-06-02T09:08:19.338Z,59.81
2018-06-02T09:09:19.337Z,59.78
2018-06-02T09:10:19.331Z,59.43
2018-06-02T09:11:19.322Z,60.20
2018-06-02T09:12:19.317Z,59.62
2018-06-02T09:13:19.311Z,60.20
2018-06-02T09:14:19.307Z,59.43
2018-06-02T09:15:19.295Z,58.17
2018-06-02T09:16:19.291Z,58.17
2018-06-02T09:17:19.285Z,58.17
2018-06-02T09:18:19.273Z,57.98
2018-06-02T09:19:19.269Z,57.40
2018-06-02T09:20:19.261Z,58.37
2018-06-02T09:21:19.256Z,57.79
2018-06-02T09:22:19.254Z,56.95
2018-06-02T09:23:19.251Z,56.92
2018-06-02T09:24:19.237Z,57.14
2018-06-02T09:25:19.227Z,57.02
2018-06-02T09:26:19.223Z,56.76
2018-06-02T09:27:19.213Z,57.82
2018-06-02T09:28:19.210Z,58.40
2018-06-02T09:29:19.206Z,58.78
2018-06-02T09:30:19.206Z,58.88
2018-06-02T09:31:19.197Z,58.37
2018-06-02T09:32:19.181Z,58.20
2018-06-02T09:33:19.180Z,58.49
2018-06-02T09:34:19.176Z,59.17
2018-06-02T09:35:19.213Z,61.48
2018-06-02T09:36:19.159Z,58.69
2018-06-02T09:37:19.155Z,58.88
2018-06-02T09:38:19.146Z,59.17
2018-06-02T09:39:19.133Z,57.69
2018-06-02T09:40:19.137Z,59.75
2018-06-02T09:41:19.125Z,58.65
2018-06-02T09:42:19.117Z,59.04
2018-06-02T09:43:19.113Z,59.14
2018-06-02T09:44:19.104Z,59.72
2018-06-02T09:45:19.098Z,60.03
2018-06-02T09:46:19.094Z,59.65
2018-06-02T09:47:19.088Z,60.39
2018-06-02T09:48:19.084Z,59.62
2018-06-02T09:49:19.075Z,60.10
2018-06-02T09:50:19.066Z,60.49
2018-06-02T09:51:19.065Z,60.20
2018-06-02T09:52:19.057Z,59.81
2018-06-02T09:53:19.049Z,60.10
2018-06-02T09:54:19.043Z,59.81
2018-06-02T09:55:19.039Z,60.58
2018-06-02T09:56:19.033Z,59.43
2018-06-02T09:57:19.024Z,59.04
2018-06-02T09:58:19.022Z,58.95
2018-06-02T09:59:19.019Z,59.62
2018-06-02T10:00:19.000Z,59.72
2018-06-02T10:01:18.997Z,59.36
2018-06-02T10:02:18.985Z,59.27
2018-06-02T10:03:18.985Z,59.65
2018-06-02T10:04:18.978Z,58.40
2018-06-02T10:05:18.974Z,58.69
2018-06-02T10:06:18.966Z,60.23
2018-06-02T10:07:18.959Z,59.78
2018-06-02T10:08:18.952Z,59.78
2018-06-02T10:09:18.945Z,57.65
2018-06-02T10:10:18.937Z,59.30
2018-06-02T10:11:18.934Z,58.42
2018-06-02T10:12:18.930Z,57.46
2018-06-02T10:13:18.922Z,56.88
2018-06-02T10:14:18.912Z,58.04
2018-06-02T10:15:18.912Z,57.75
2018-06-02T10:16:18.897Z,57.07
2018-06-02T10:17:18.889Z,57.27
2018-06-02T10:18:18.888Z,59.39
2018-06-02T10:19:18.879Z,59.10
2018-06-02T10:20:18.875Z,57.17
2018-06-02T10:21:18.866Z,57.27
2018-06-02T10:22:18.861Z,58.04
2018-06-02T10:23:18.852Z,56.62
2018-06-02T10:24:18.850Z,55.15
2018-06-02T10:25:18.846Z,55.15
2018-06-02T10:26:18.838Z,55.24
2018-06-02T10:27:18.842Z,55.15
2018-06-02T10:28:18.823Z,55.44
2018-06-02T10:29:18.820Z,57.85
2018-06-02T10:30:18.810Z,57.07
2018-06-02T10:31:18.806Z,57.56
2018-06-02T10:32:18.801Z,56.62
2018-06-02T10:33:18.792Z,54.28
2018-06-02T10:34:18.783Z,55.36
2018-06-02T10:35:18.777Z,55.56
2018-06-02T10:36:18.776Z,55.94
2018-06-02T10:37:18.764Z,55.18
2018-06-02T10:38:18.759Z,54.11
2018-06-02T10:39:18.751Z,54.21
2018-06-02T10:40:18.748Z,54.69
2018-06-02T10:41:18.742Z,54.02
2018-06-02T10:42:18.734Z,54.02
2018-06-02T10:43:18.734Z,55.27
2018-06-02T10:44:18.724Z,55.08
2018-06-02T10:45:18.720Z,54.14
2018-06-02T10:46:18.712Z,54.72
2018-06-02T10:47:18.706Z,55.98
2018-06-02T10:48:18.697Z,54.14
2018-06-02T10:49:18.689Z,54.14
2018-06-02T10:50:18.688Z,55.68
2018-06-02T10:51:18.737Z,57.32
2018-06-02T10:52:18.678Z,55.49
2018-06-02T10:53:18.670Z,55.49
2018-06-02T10:54:18.662Z,55.01
2018-06-02T10:55:18.658Z,52.91
2018-06-02T10:56:18.649Z,53.97
2018-06-02T10:57:18.641Z,55.13
2018-06-02T10:58:18.640Z,53.69
2018-06-02T10:59:18.632Z,51.85
2018-06-02T11:00:18.628Z,54.29
2018-06-02T11:01:18.623Z,54.58
2018-06-02T11:02:18.618Z,53.13
2018-06-02T11:03:18.606Z,52.45
2018-06-02T11:04:18.605Z,53.23
2018-06-02T11:05:18.606Z,51.49
2018-06-02T11:06:18.594Z,52.36
2018-06-02T11:07:18.587Z,52.55
2018-06-02T11:08:18.581Z,51.78
2018-06-02T11:09:18.570Z,52.94
2018-06-02T11:10:18.565Z,51.97
2018-06-02T11:11:18.563Z,52.43
2018-06-02T11:12:18.557Z,53.20
2018-06-02T11:13:18.550Z,51.82
2018-06-02T11:14:18.551Z,51.73
2018-06-02T11:15:18.544Z,52.69
2018-06-02T11:16:18.535Z,53.85
2018-06-02T11:17:18.527Z,54.21
2018-06-02T11:18:18.526Z,54.31
2018-06-02T11:19:18.520Z,54.28
2018-06-02T11:20:18.515Z,54.69
2018-06-02T11:21:18.506Z,54.86
2018-06-02T11:22:18.498Z,54.96
2018-06-02T11:23:18.495Z,55.46
2018-06-02T11:24:18.490Z,56.14
2018-06-02T11:25:18.488Z,54.98
2018-06-02T11:26:18.475Z,55.15
2018-06-02T11:27:18.470Z,54.50
2018-06-02T11:28:18.468Z,55.85
2018-06-02T11:29:18.466Z,55.92
2018-06-02T11:30:18.453Z,54.66
2018-06-02T11:31:18.446Z,55.82
2018-06-02T11:32:18.440Z,55.73
2018-06-02T11:33:18.436Z,55.34
2018-06-02T11:34:18.434Z,56.33
2018-06-02T11:35:18.422Z,55.46
2018-06-02T11:36:18.417Z,54.60
2018-06-02T11:37:18.417Z,53.08
2018-06-02T11:38:18.407Z,53.08
2018-06-02T11:39:18.395Z,53.11
2018-06-02T11:40:18.390Z,52.43
2018-06-02T11:41:18.387Z,51.75
2018-06-02T11:42:18.380Z,51.75
2018-06-02T11:43:18.380Z,51.95
2018-06-02T11:44:18.374Z,53.13
2018-06-02T11:45:18.366Z,55.93
2018-06-02T11:46:18.362Z,53.16
2018-06-02T11:47:18.357Z,52.77
2018-06-02T11:48:18.348Z,53.45
2018-06-02T11:49:18.344Z,53.35
2018-06-02T11:50:18.336Z,52.29
2018-06-02T11:51:18.326Z,52.48
2018-06-02T11:52:18.323Z,53.06
2018-06-02T11:53:18.322Z,53.19
2018-06-02T11:54:18.315Z,52.87
2018-06-02T11:55:18.309Z,53.93
2018-06-02T11:56:18.306Z,52.97
2018-06-02T11:57:18.299Z,53.28
2018-06-02T11:58:18.295Z,53.67
2018-06-02T11:59:18.294Z,52.89
2018-06-02T12:00:18.278Z,52.51
2018-06-02T12:01:18.280Z,52.41
2018-06-02T12:02:18.271Z,53.47
2018-06-02T12:03:18.264Z,53.09
2018-06-02T12:04:18.263Z,53.74
2018-06-02T12:05:18.258Z,54.58
2018-06-02T12:06:18.255Z,53.97
2018-06-02T12:07:18.245Z,54.55
2018-06-02T12:08:18.239Z,54.33
2018-06-02T12:09:18.234Z,55.88
2018-06-02T12:10:18.233Z,55.94
2018-06-02T12:11:18.223Z,56.04
2018-06-02T12:12:18.221Z,55.08
2018-06-02T12:13:18.214Z,55.94
2018-06-02T12:14:18.213Z,56.30
2018-06-02T12:15:18.205Z,55.82
2018-06-02T12:16:18.194Z,57.07
2018-06-02T12:17:18.191Z,56.30
2018-06-02T12:18:18.190Z,55.41
2018-06-02T12:19:18.177Z,56.47
2018-06-02T12:20:18.170Z,57.53
2018-06-02T12:21:18.166Z,58.20
2018-06-02T12:22:18.158Z,59.75
2018-06-02T12:23:18.160Z,60.90
2018-06-02T12:24:18.149Z,61.29
2018-06-02T12:25:18.143Z,62.54
2018-06-02T12:26:18.141Z,62.83
2018-06-02T12:27:18.130Z,63.79
2018-06-02T12:28:18.160Z,62.45
2018-06-02T12:29:18.121Z,64.18
2018-06-02T12:30:18.117Z,66.30
2018-06-02T12:31:18.115Z,66.11
2018-06-02T12:32:18.102Z,66.24
2018-06-02T12:33:18.090Z,66.14
2018-06-02T12:34:18.091Z,64.21
2018-06-02T12:35:18.081Z,66.33
2018-06-02T12:36:18.079Z,67.23
2018-06-02T12:37:18.069Z,68.59
2018-06-02T12:38:18.063Z,68.52
2018-06-02T12:39:18.064Z,69.04
2018-06-02T12:40:18.102Z,70.78
2018-06-02T12:41:18.051Z,67.72
2018-06-02T12:42:18.038Z,65.50
2018-06-02T12:43:18.038Z,61.18
2018-06-02T12:44:18.026Z,60.99
2018-06-02T12:45:18.028Z,58.47
2018-06-02T12:46:18.014Z,60.34
2018-06-02T12:47:18.012Z,57.73
2018-06-02T12:48:18.007Z,56.18
2018-06-02T12:49:18.003Z,54.66
2018-06-02T12:50:17.996Z,53.57
2018-06-02T12:51:17.989Z,54.37
2018-06-02T12:52:17.983Z,54.35